sensor_id;sensor_type;location;lat;lon;timestamp;P1;durP1;ratioP1;P2;durP2;ratioP2
18875;SDS011;9570;50.854;13.778;2023-01-16T02:33:26;1.83;;;1.00;;
18875;SDS011;9570;50.854;13.778;2023-01-16T02:36:06;2.10;;;0.93;;
18875;SDS011;9570;50.854;13.778;2023-01-16T03:41:08;3.33;;;2.10;;
18875;SDS011;9570;50.854;13.778;2023-01-16T03:43:37;4.20;;;2.10;;
18875;SDS011;9570;50.854;13.778;2023-01-16T04:32:22;3.70;;;2.50;;
18875;SDS011;9570;50.854;13.778;2023-01-16T04:34:47;5.87;;;2.70;;
18875;SDS011;9570;50.854;13.778;2023-01-16T04:37:13;6.80;;;2.83;;
18875;SDS011;9570;50.854;13.778;2023-01-16T04:39:40;5.10;;;2.63;;
18875;SDS011;9570;50.854;13.778;2023-01-16T04:42:05;5.37;;;3.00;;
18875;SDS011;9570;50.854;13.778;2023-01-16T04:44:31;4.63;;;2.80;;
18875;SDS011;9570;50.854;13.778;2023-01-16T04:47:00;5.85;;;3.03;;
18875;SDS011;9570;50.854;13.778;2023-01-16T05:38:28;2.80;;;1.63;;
18875;SDS011;9570;50.854;13.778;2023-01-16T05:40:54;2.30;;;1.93;;
18875;SDS011;9570;50.854;13.778;2023-01-16T05:43:19;3.20;;;1.53;;
18875;SDS011;9570;50.854;13.778;2023-01-16T05:45:45;2.37;;;1.60;;
18875;SDS011;9570;50.854;13.778;2023-01-16T08:31:03;1.23;;;1.13;;
18875;SDS011;9570;50.854;13.778;2023-01-16T08:33:37;1.63;;;0.90;;
18875;SDS011;9570;50.854;13.778;2023-01-16T08:36:04;2.67;;;1.23;;
18875;SDS011;9570;50.854;13.778;2023-01-16T08:38:31;1.57;;;1.00;;
18875;SDS011;9570;50.854;13.778;2023-01-16T08:40:57;2.93;;;1.20;;
18875;SDS011;9570;50.854;13.778;2023-01-16T08:43:23;3.07;;;1.20;;
18875;SDS011;9570;50.854;13.778;2023-01-16T08:46:16;1.70;;;1.03;;
18875;SDS011;9570;50.854;13.778;2023-01-16T08:49:16;2.77;;;1.10;;
18875;SDS011;9570;50.854;13.778;2023-01-16T08:52:00;3.67;;;1.20;;
18875;SDS011;9570;50.854;13.778;2023-01-16T08:54:26;1.40;;;1.00;;
18875;SDS011;9570;50.854;13.778;2023-01-16T08:56:51;1.63;;;1.07;;
18875;SDS011;9570;50.854;13.778;2023-01-16T08:59:17;2.47;;;1.30;;
18875;SDS011;9570;50.854;13.778;2023-01-16T09:01:42;4.43;;;1.10;;
18875;SDS011;9570;50.854;13.778;2023-01-16T09:04:08;2.03;;;1.40;;
18875;SDS011;9570;50.854;13.778;2023-01-16T09:06:33;3.60;;;1.17;;
18875;SDS011;9570;50.854;13.778;2023-01-16T09:09:01;2.30;;;1.10;;
18875;SDS011;9570;50.854;13.778;2023-01-16T09:11:28;1.63;;;1.13;;
18875;SDS011;9570;50.854;13.778;2023-01-16T09:14:12;2.67;;;1.20;;
18875;SDS011;9570;50.854;13.778;2023-01-16T09:16:37;2.83;;;1.40;;
18875;SDS011;9570;50.854;13.778;2023-01-16T09:19:03;1.63;;;0.87;;
18875;SDS011;9570;50.854;13.778;2023-01-16T09:21:29;3.23;;;1.40;;
18875;SDS011;9570;50.854;13.778;2023-01-16T09:23:54;2.57;;;1.07;;
18875;SDS011;9570;50.854;13.778;2023-01-16T09:26:20;2.57;;;1.13;;
18875;SDS011;9570;50.854;13.778;2023-01-16T09:28:45;2.87;;;1.30;;
18875;SDS011;9570;50.854;13.778;2023-01-16T09:31:11;4.97;;;0.90;;
18875;SDS011;9570;50.854;13.778;2023-01-16T09:33:36;6.80;;;1.43;;
18875;SDS011;9570;50.854;13.778;2023-01-16T09:36:02;3.07;;;1.13;;
18875;SDS011;9570;50.854;13.778;2023-01-16T09:38:28;1.73;;;1.40;;
18875;SDS011;9570;50.854;13.778;2023-01-16T09:40:55;1.67;;;1.00;;
18875;SDS011;9570;50.854;13.778;2023-01-16T09:46:21;4.80;;;1.30;;
18875;SDS011;9570;50.854;13.778;2023-01-16T09:48:51;2.67;;;1.00;;
18875;SDS011;9570;50.854;13.778;2023-01-16T09:51:29;2.37;;;1.10;;
18875;SDS011;9570;50.854;13.778;2023-01-16T09:54:19;3.60;;;1.10;;
18875;SDS011;9570;50.854;13.778;2023-01-16T09:57:08;2.70;;;1.00;;
18875;SDS011;9570;50.854;13.778;2023-01-16T09:59:56;1.87;;;1.10;;
18875;SDS011;9570;50.854;13.778;2023-01-16T10:02:26;2.17;;;0.90;;
18875;SDS011;9570;50.854;13.778;2023-01-16T10:04:55;1.50;;;1.00;;
18875;SDS011;9570;50.854;13.778;2023-01-16T10:07:26;2.83;;;0.97;;
18875;SDS011;9570;50.854;13.778;2023-01-16T10:10:26;2.20;;;0.97;;
18875;SDS011;9570;50.854;13.778;2023-01-16T10:15:49;1.53;;;1.00;;
18875;SDS011;9570;50.854;13.778;2023-01-16T10:24:05;3.37;;;1.37;;
18875;SDS011;9570;50.854;13.778;2023-01-16T10:29:20;3.70;;;1.40;;
18875;SDS011;9570;50.854;13.778;2023-01-16T10:32:03;2.27;;;1.27;;
18875;SDS011;9570;50.854;13.778;2023-01-16T10:34:36;3.73;;;1.43;;
18875;SDS011;9570;50.854;13.778;2023-01-16T10:37:15;3.57;;;1.17;;
18875;SDS011;9570;50.854;13.778;2023-01-16T10:39:41;2.47;;;1.30;;
18875;SDS011;9570;50.854;13.778;2023-01-16T10:42:12;1.90;;;1.00;;
18875;SDS011;9570;50.854;13.778;2023-01-16T10:44:58;3.07;;;0.93;;
18875;SDS011;9570;50.854;13.778;2023-01-16T10:47:48;3.10;;;0.90;;
18875;SDS011;9570;50.854;13.778;2023-01-16T10:50:33;3.70;;;1.30;;
18875;SDS011;9570;50.854;13.778;2023-01-16T10:52:59;3.40;;;1.30;;
18875;SDS011;9570;50.854;13.778;2023-01-16T10:55:25;3.73;;;1.23;;
18875;SDS011;9570;50.854;13.778;2023-01-16T10:57:52;3.37;;;1.40;;
18875;SDS011;9570;50.854;13.778;2023-01-16T11:00:24;3.17;;;1.33;;
18875;SDS011;9570;50.854;13.778;2023-01-16T11:03:40;2.50;;;1.40;;
18875;SDS011;9570;50.854;13.778;2023-01-16T11:05:48;2.27;;;1.50;;
18875;SDS011;9570;50.854;13.778;2023-01-16T11:08:15;2.77;;;1.67;;
18875;SDS011;9570;50.854;13.778;2023-01-16T11:10:46;4.33;;;1.97;;
18875;SDS011;9570;50.854;13.778;2023-01-16T11:13:14;2.70;;;1.70;;
18875;SDS011;9570;50.854;13.778;2023-01-16T11:18:56;3.67;;;1.73;;
18875;SDS011;9570;50.854;13.778;2023-01-16T11:21:41;4.33;;;1.80;;
18875;SDS011;9570;50.854;13.778;2023-01-16T11:24:17;5.43;;;2.00;;
18875;SDS011;9570;50.854;13.778;2023-01-16T11:26:48;4.40;;;1.67;;
18875;SDS011;9570;50.854;13.778;2023-01-16T11:29:20;3.50;;;1.60;;
18875;SDS011;9570;50.854;13.778;2023-01-16T11:31:58;4.47;;;1.57;;
18875;SDS011;9570;50.854;13.778;2023-01-16T11:34:27;4.37;;;1.60;;
18875;SDS011;9570;50.854;13.778;2023-01-16T11:36:54;2.23;;;1.77;;
18875;SDS011;9570;50.854;13.778;2023-01-16T11:39:28;4.53;;;1.50;;
18875;SDS011;9570;50.854;13.778;2023-01-16T11:41:56;2.63;;;1.63;;
18875;SDS011;9570;50.854;13.778;2023-01-16T11:44:26;4.03;;;2.20;;
18875;SDS011;9570;50.854;13.778;2023-01-16T11:47:23;3.47;;;1.57;;
18875;SDS011;9570;50.854;13.778;2023-01-16T11:49:52;3.70;;;1.60;;
18875;SDS011;9570;50.854;13.778;2023-01-16T11:52:22;4.87;;;1.83;;
18875;SDS011;9570;50.854;13.778;2023-01-16T11:54:58;4.67;;;2.10;;
18875;SDS011;9570;50.854;13.778;2023-01-16T12:00:22;3.80;;;1.97;;
18875;SDS011;9570;50.854;13.778;2023-01-16T12:02:58;3.27;;;1.97;;
18875;SDS011;9570;50.854;13.778;2023-01-16T12:11:37;7.00;;;2.33;;
18875;SDS011;9570;50.854;13.778;2023-01-16T12:17:02;3.87;;;1.80;;
18875;SDS011;9570;50.854;13.778;2023-01-16T12:22:36;5.20;;;2.50;;
18875;SDS011;9570;50.854;13.778;2023-01-16T12:28:15;6.90;;;2.00;;
18875;SDS011;9570;50.854;13.778;2023-01-16T12:45:49;5.67;;;1.93;;
18875;SDS011;9570;50.854;13.778;2023-01-16T12:50:52;3.57;;;1.70;;
18875;SDS011;9570;50.854;13.778;2023-01-16T13:01:47;4.43;;;1.60;;
18875;SDS011;9570;50.854;13.778;2023-01-16T13:04:23;3.97;;;2.03;;
18875;SDS011;9570;50.854;13.778;2023-01-16T13:07:03;2.80;;;1.80;;
18875;SDS011;9570;50.854;13.778;2023-01-16T13:09:53;3.33;;;1.90;;
18875;SDS011;9570;50.854;13.778;2023-01-16T13:12:56;3.60;;;2.00;;
18875;SDS011;9570;50.854;13.778;2023-01-16T13:15:43;4.30;;;2.00;;
18875;SDS011;9570;50.854;13.778;2023-01-16T13:18:13;3.73;;;1.57;;
18875;SDS011;9570;50.854;13.778;2023-01-16T13:20:45;2.77;;;1.30;;
18875;SDS011;9570;50.854;13.778;2023-01-16T13:23:23;5.33;;;1.53;;
18875;SDS011;9570;50.854;13.778;2023-01-16T13:26:03;2.77;;;1.47;;
18875;SDS011;9570;50.854;13.778;2023-01-16T13:28:36;3.83;;;1.53;;
18875;SDS011;9570;50.854;13.778;2023-01-16T13:31:07;2.60;;;1.73;;
18875;SDS011;9570;50.854;13.778;2023-01-16T13:33:59;4.80;;;1.37;;
18875;SDS011;9570;50.854;13.778;2023-01-16T13:36:38;2.63;;;1.40;;
18875;SDS011;9570;50.854;13.778;2023-01-16T13:39:45;3.93;;;1.53;;
18875;SDS011;9570;50.854;13.778;2023-01-16T13:42:24;3.57;;;1.40;;
18875;SDS011;9570;50.854;13.778;2023-01-16T13:44:54;2.03;;;1.30;;
18875;SDS011;9570;50.854;13.778;2023-01-16T13:47:42;2.53;;;1.40;;
18875;SDS011;9570;50.854;13.778;2023-01-16T13:50:20;2.37;;;1.50;;
18875;SDS011;9570;50.854;13.778;2023-01-16T13:52:59;3.97;;;1.60;;
18875;SDS011;9570;50.854;13.778;2023-01-16T13:55:31;3.83;;;1.33;;
18875;SDS011;9570;50.854;13.778;2023-01-16T13:58:06;3.43;;;1.70;;
18875;SDS011;9570;50.854;13.778;2023-01-16T14:00:35;4.83;;;1.90;;
18875;SDS011;9570;50.854;13.778;2023-01-16T14:03:10;3.23;;;1.43;;
18875;SDS011;9570;50.854;13.778;2023-01-16T14:05:52;4.07;;;1.70;;
18875;SDS011;9570;50.854;13.778;2023-01-16T14:08:44;2.87;;;1.20;;
18875;SDS011;9570;50.854;13.778;2023-01-16T14:11:36;2.43;;;1.60;;
18875;SDS011;9570;50.854;13.778;2023-01-16T14:14:21;7.87;;;2.03;;
18875;SDS011;9570;50.854;13.778;2023-01-16T14:17:17;3.73;;;1.33;;
18875;SDS011;9570;50.854;13.778;2023-01-16T14:19:55;5.07;;;1.70;;
18875;SDS011;9570;50.854;13.778;2023-01-16T14:22:27;3.33;;;1.90;;
18875;SDS011;9570;50.854;13.778;2023-01-16T14:25:00;4.33;;;1.70;;
18875;SDS011;9570;50.854;13.778;2023-01-16T14:27:59;3.83;;;2.20;;
18875;SDS011;9570;50.854;13.778;2023-01-16T14:30:20;4.90;;;1.70;;
18875;SDS011;9570;50.854;13.778;2023-01-16T14:32:51;3.27;;;1.70;;
18875;SDS011;9570;50.854;13.778;2023-01-16T14:35:27;4.10;;;1.20;;
18875;SDS011;9570;50.854;13.778;2023-01-16T14:38:04;3.30;;;1.30;;
18875;SDS011;9570;50.854;13.778;2023-01-16T14:40:38;2.17;;;1.30;;
18875;SDS011;9570;50.854;13.778;2023-01-16T14:43:31;7.80;;;1.97;;
18875;SDS011;9570;50.854;13.778;2023-01-16T14:56:10;5.60;;;2.77;;
18875;SDS011;9570;50.854;13.778;2023-01-16T14:58:28;6.60;;;3.17;;
18875;SDS011;9570;50.854;13.778;2023-01-16T15:01:20;5.27;;;2.57;;
18875;SDS011;9570;50.854;13.778;2023-01-16T15:04:09;4.83;;;1.97;;
18875;SDS011;9570;50.854;13.778;2023-01-16T15:06:40;4.40;;;1.90;;
18875;SDS011;9570;50.854;13.778;2023-01-16T15:09:12;5.50;;;1.90;;
18875;SDS011;9570;50.854;13.778;2023-01-16T15:11:44;12.63;;;6.27;;
18875;SDS011;9570;50.854;13.778;2023-01-16T15:14:17;5.60;;;2.07;;
18875;SDS011;9570;50.854;13.778;2023-01-16T15:19:53;5.23;;;1.70;;
18875;SDS011;9570;50.854;13.778;2023-01-16T15:22:40;3.23;;;1.73;;
18875;SDS011;9570;50.854;13.778;2023-01-16T15:28:13;4.40;;;2.10;;
18875;SDS011;9570;50.854;13.778;2023-01-16T15:30:51;3.40;;;1.70;;
18875;SDS011;9570;50.854;13.778;2023-01-16T15:33:26;3.13;;;1.90;;
18875;SDS011;9570;50.854;13.778;2023-01-16T15:36:15;5.43;;;1.77;;
18875;SDS011;9570;50.854;13.778;2023-01-16T15:38:49;5.07;;;1.90;;
18875;SDS011;9570;50.854;13.778;2023-01-16T15:41:43;4.43;;;1.60;;
18875;SDS011;9570;50.854;13.778;2023-01-16T15:44:29;3.20;;;1.50;;
18875;SDS011;9570;50.854;13.778;2023-01-16T15:49:51;3.37;;;1.80;;
18875;SDS011;9570;50.854;13.778;2023-01-16T15:52:30;3.80;;;2.07;;
18875;SDS011;9570;50.854;13.778;2023-01-16T15:54:57;4.53;;;2.20;;
18875;SDS011;9570;50.854;13.778;2023-01-16T15:57:23;2.97;;;2.10;;
18875;SDS011;9570;50.854;13.778;2023-01-16T15:59:53;4.30;;;2.00;;
18875;SDS011;9570;50.854;13.778;2023-01-16T16:02:25;5.47;;;2.43;;
18875;SDS011;9570;50.854;13.778;2023-01-16T19:31:51;2.63;;;2.30;;
18875;SDS011;9570;50.854;13.778;2023-01-16T19:34:18;4.43;;;1.97;;
18875;SDS011;9570;50.854;13.778;2023-01-16T19:36:45;2.43;;;1.77;;
18875;SDS011;9570;50.854;13.778;2023-01-16T19:39:12;3.07;;;2.23;;
18875;SDS011;9570;50.854;13.778;2023-01-16T19:41:38;3.20;;;2.10;;
18875;SDS011;9570;50.854;13.778;2023-01-16T19:44:23;4.53;;;2.30;;
18875;SDS011;9570;50.854;13.778;2023-01-16T19:47:07;2.77;;;2.20;;
18875;SDS011;9570;50.854;13.778;2023-01-16T19:49:33;6.03;;;2.33;;
18875;SDS011;9570;50.854;13.778;2023-01-16T19:51:59;2.33;;;2.00;;
18875;SDS011;9570;50.854;13.778;2023-01-16T19:54:26;2.57;;;2.20;;
18875;SDS011;9570;50.854;13.778;2023-01-16T19:56:52;3.90;;;2.30;;
18875;SDS011;9570;50.854;13.778;2023-01-16T19:59:18;3.23;;;2.30;;
18875;SDS011;9570;50.854;13.778;2023-01-16T20:01:50;4.47;;;2.63;;
18875;SDS011;9570;50.854;13.778;2023-01-16T20:04:30;4.27;;;2.67;;
18875;SDS011;9570;50.854;13.778;2023-01-16T20:06:59;4.63;;;2.57;;
18875;SDS011;9570;50.854;13.778;2023-01-16T20:09:25;3.23;;;2.33;;
18875;SDS011;9570;50.854;13.778;2023-01-16T20:11:50;5.27;;;2.67;;
18875;SDS011;9570;50.854;13.778;2023-01-16T20:14:34;3.47;;;2.40;;
18875;SDS011;9570;50.854;13.778;2023-01-16T20:17:00;3.47;;;2.70;;
18875;SDS011;9570;50.854;13.778;2023-01-16T20:19:25;3.57;;;2.50;;
18875;SDS011;9570;50.854;13.778;2023-01-16T20:21:51;3.73;;;2.50;;
18875;SDS011;9570;50.854;13.778;2023-01-16T20:24:18;3.60;;;3.00;;
18875;SDS011;9570;50.854;13.778;2023-01-16T20:26:44;4.90;;;2.63;;
18875;SDS011;9570;50.854;13.778;2023-01-16T20:29:12;3.90;;;2.80;;
18875;SDS011;9570;50.854;13.778;2023-01-16T20:31:38;6.63;;;2.60;;
18875;SDS011;9570;50.854;13.778;2023-01-16T23:17:18;6.17;;;5.33;;
18875;SDS011;9570;50.854;13.778;2023-01-16T23:19:43;6.33;;;5.67;;
18875;SDS011;9570;50.854;13.778;2023-01-16T23:22:09;7.17;;;5.57;;
18875;SDS011;9570;50.854;13.778;2023-01-16T23:24:34;6.67;;;5.13;;
18875;SDS011;9570;50.854;13.778;2023-01-16T23:27:00;6.30;;;5.03;;
18875;SDS011;9570;50.854;13.778;2023-01-16T23:29:26;7.10;;;4.83;;
18875;SDS011;9570;50.854;13.778;2023-01-16T23:31:52;6.63;;;5.13;;
18875;SDS011;9570;50.854;13.778;2023-01-16T23:34:19;6.85;;;4.90;;
18875;SDS011;9570;50.854;13.778;2023-01-16T23:36:52;6.20;;;4.93;;
